createdAt,value
2017-09-22T00:02:29.021Z,15.73
2017-09-22T00:04:58.129Z,13.33
2017-09-22T00:07:27.260Z,11.43
2017-09-22T00:09:56.409Z,21.53
2017-09-22T00:12:25.574Z,12.37
2017-09-22T00:14:54.699Z,12.33
2017-09-22T00:17:23.825Z,13.13
2017-09-22T00:19:52.948Z,16.13
2017-09-22T00:22:22.089Z,14.87
2017-09-22T00:24:51.209Z,16.03
2017-09-22T00:27:20.349Z,16.80
2017-09-22T00:29:49.452Z,13.47
2017-09-22T00:32:18.592Z,13.83
2017-09-22T00:34:47.725Z,12.57
2017-09-22T00:37:16.853Z,10.93
2017-09-22T00:39:45.983Z,18.90
2017-09-22T00:42:15.316Z,12.70
2017-09-22T00:44:44.429Z,12.77
2017-09-22T00:47:13.574Z,13.23
2017-09-22T00:49:42.692Z,12.27
2017-09-22T00:52:11.828Z,16.10
2017-09-22T00:54:40.980Z,11.27
2017-09-22T00:57:10.109Z,14.00
2017-09-22T00:59:39.229Z,12.73
2017-09-22T01:02:08.348Z,16.00
2017-09-22T01:04:37.537Z,12.80
2017-09-22T01:07:06.669Z,16.00
2017-09-22T01:09:35.788Z,14.70
2017-09-22T01:12:04.913Z,13.60
2017-09-22T01:14:34.052Z,15.87
2017-09-22T01:17:03.190Z,16.07
2017-09-22T01:19:32.317Z,14.90
2017-09-22T01:22:01.454Z,13.97
2017-09-22T01:24:30.649Z,16.43
2017-09-22T01:26:59.782Z,15.03
2017-09-22T01:29:28.902Z,13.80
2017-09-22T01:31:58.044Z,13.83
2017-09-22T01:34:27.161Z,12.70
2017-09-22T01:36:56.276Z,16.70
2017-09-22T01:39:25.421Z,14.67
2017-09-22T01:41:54.699Z,15.63
2017-09-22T01:44:23.829Z,18.50
2017-09-22T01:46:52.958Z,18.80
2017-09-22T01:49:22.083Z,15.27
2017-09-22T01:51:51.200Z,14.70
2017-09-22T01:54:20.321Z,17.30
2017-09-22T01:56:50.044Z,18.87
2017-09-22T01:59:19.169Z,12.40
2017-09-22T02:01:48.284Z,14.17
2017-09-22T02:04:17.412Z,14.03
2017-09-22T02:06:46.594Z,16.13
2017-09-22T02:09:15.736Z,16.57
2017-09-22T02:11:44.861Z,15.23
2017-09-22T02:14:13.993Z,13.33
2017-09-22T02:16:43.416Z,12.67
2017-09-22T02:19:12.528Z,15.13
2017-09-22T02:21:41.671Z,16.10
2017-09-22T02:24:10.808Z,20.03
2017-09-22T02:26:39.940Z,19.73
2017-09-22T02:29:09.057Z,13.07
2017-09-22T02:31:38.199Z,12.17
2017-09-22T02:34:07.309Z,13.60
2017-09-22T02:36:36.436Z,17.00
2017-09-22T02:39:05.583Z,19.63
2017-09-22T02:41:34.737Z,13.30
2017-09-22T02:44:03.865Z,15.30
2017-09-22T02:46:32.999Z,12.57
2017-09-22T02:49:02.143Z,13.60
2017-09-22T02:51:31.255Z,18.17
2017-09-22T02:54:00.381Z,14.33
2017-09-22T02:56:29.490Z,16.50
2017-09-22T02:58:58.727Z,13.73
2017-09-22T03:01:27.849Z,11.90
2017-09-22T03:03:56.982Z,15.50
2017-09-22T03:06:26.103Z,18.40
2017-09-22T03:08:55.245Z,17.57
2017-09-22T03:11:24.398Z,14.70
2017-09-22T03:13:53.604Z,15.43
2017-09-22T03:16:22.718Z,14.80
2017-09-22T03:18:51.833Z,18.30
2017-09-22T03:21:20.959Z,19.30
2017-09-22T03:23:50.092Z,17.47
2017-09-22T03:26:19.212Z,16.20
2017-09-22T03:28:48.357Z,16.77
2017-09-22T03:31:17.493Z,12.30
2017-09-22T03:33:46.621Z,16.60
2017-09-22T03:36:15.809Z,16.23
2017-09-22T03:38:44.927Z,15.43
2017-09-22T03:41:14.077Z,15.37
2017-09-22T03:43:43.190Z,13.87
2017-09-22T03:46:12.312Z,13.70
2017-09-22T03:48:41.441Z,19.00
2017-09-22T03:51:10.574Z,17.80
2017-09-22T03:53:39.701Z,15.37
2017-09-22T03:56:08.837Z,15.87
2017-09-22T03:58:38.013Z,13.90
2017-09-22T04:01:07.141Z,16.93
2017-09-22T04:03:36.260Z,15.43
2017-09-22T04:06:05.384Z,17.10
2017-09-22T04:08:34.528Z,18.07
2017-09-22T04:11:03.660Z,16.50
2017-09-22T04:13:32.790Z,14.70
2017-09-22T04:16:01.917Z,16.03
2017-09-22T04:18:31.036Z,14.27
2017-09-22T04:21:00.183Z,18.53
2017-09-22T04:23:29.409Z,17.00
2017-09-22T04:25:58.550Z,23.63
2017-09-22T04:28:27.670Z,20.30
2017-09-22T04:30:56.797Z,14.57
2017-09-22T04:33:25.911Z,18.70
2017-09-22T04:35:55.037Z,18.30
2017-09-22T04:38:24.144Z,21.33
2017-09-22T04:40:53.300Z,21.60
2017-09-22T04:43:22.429Z,21.33
2017-09-22T04:45:51.566Z,19.83
2017-09-22T04:48:20.828Z,16.13
2017-09-22T04:50:49.966Z,16.83
2017-09-22T04:53:19.084Z,17.40
2017-09-22T04:55:48.213Z,20.07
2017-09-22T04:58:17.505Z,18.37
2017-09-22T05:00:46.625Z,18.07
2017-09-22T05:03:15.763Z,19.37
2017-09-22T05:05:44.905Z,18.07
2017-09-22T05:08:14.040Z,21.30
2017-09-22T05:10:43.274Z,18.77
2017-09-22T05:13:12.400Z,23.07
2017-09-22T05:15:41.529Z,23.70
2017-09-22T05:18:10.654Z,19.30
2017-09-22T05:20:39.878Z,18.27
2017-09-22T05:23:08.991Z,27.30
2017-09-22T05:25:38.114Z,19.47
2017-09-22T05:28:07.223Z,19.27
2017-09-22T05:30:36.357Z,25.30
2017-09-22T05:33:05.476Z,20.40
2017-09-22T05:35:34.636Z,19.13
2017-09-22T05:38:03.762Z,18.60
2017-09-22T05:40:32.886Z,26.60
2017-09-22T05:43:02.032Z,22.63
2017-09-22T05:45:31.145Z,19.87
2017-09-22T05:48:00.281Z,21.70
2017-09-22T05:50:29.397Z,18.67
2017-09-22T05:52:58.552Z,21.00
2017-09-22T05:55:27.690Z,19.80
2017-09-22T05:57:56.798Z,25.40
2017-09-22T06:00:25.934Z,20.00
2017-09-22T06:02:55.058Z,20.03
2017-09-22T06:05:24.185Z,19.87
2017-09-22T06:07:53.305Z,19.37
2017-09-22T06:10:22.568Z,23.87
2017-09-22T06:12:51.703Z,21.37
2017-09-22T06:15:20.828Z,25.23
2017-09-22T06:17:49.977Z,18.67
2017-09-22T06:20:19.106Z,27.07
2017-09-22T06:22:48.222Z,20.67
2017-09-22T06:25:17.960Z,21.90
2017-09-22T06:27:47.101Z,22.30
2017-09-22T06:30:16.228Z,23.00
2017-09-22T06:32:45.370Z,23.57
2017-09-22T06:35:14.481Z,22.47
2017-09-22T06:37:43.616Z,24.33
2017-09-22T06:40:12.753Z,23.90
2017-09-22T06:42:41.868Z,26.20
2017-09-22T06:45:11.005Z,19.73
2017-09-22T06:47:40.147Z,18.17
2017-09-22T06:50:09.270Z,19.50
2017-09-22T06:52:38.545Z,21.03
2017-09-22T06:55:07.661Z,20.57
2017-09-22T06:57:36.815Z,25.97
2017-09-22T07:00:05.940Z,20.80
2017-09-22T07:02:35.590Z,20.10
2017-09-22T07:05:04.700Z,28.47
2017-09-22T07:07:33.855Z,23.50
2017-09-22T07:10:02.972Z,22.73
2017-09-22T07:12:32.116Z,24.17
2017-09-22T07:15:01.258Z,26.23
2017-09-22T07:17:30.366Z,31.77
2017-09-22T07:19:59.501Z,24.30
2017-09-22T07:22:28.624Z,25.03
2017-09-22T07:24:57.749Z,19.63
2017-09-22T07:27:26.870Z,20.17
2017-09-22T07:29:56.022Z,27.03
2017-09-22T07:32:25.136Z,24.30
2017-09-22T07:34:54.281Z,23.53
2017-09-22T07:37:23.479Z,19.50
2017-09-22T07:39:52.608Z,23.43
2017-09-22T07:42:21.826Z,25.77
2017-09-22T07:44:50.980Z,24.37
2017-09-22T07:47:20.184Z,23.83
2017-09-22T07:49:49.312Z,29.70
2017-09-22T07:52:19.098Z,23.00
2017-09-22T07:54:48.943Z,26.50
2017-09-22T07:57:18.129Z,21.63
2017-09-22T07:59:47.260Z,27.00
2017-09-22T08:02:16.377Z,27.90
2017-09-22T08:04:45.509Z,31.90
2017-09-22T08:07:14.633Z,29.27
2017-09-22T08:09:43.773Z,22.27
2017-09-22T08:12:12.907Z,23.17
2017-09-22T08:14:42.053Z,29.17
2017-09-22T08:17:11.869Z,20.63
2017-09-22T08:19:41.009Z,23.20
2017-09-22T08:22:10.128Z,23.43
2017-09-22T08:24:39.249Z,22.10
2017-09-22T08:27:08.380Z,24.10
2017-09-22T08:29:37.492Z,27.60
2017-09-22T08:32:06.624Z,26.87
2017-09-22T08:34:35.736Z,28.80
2017-09-22T08:37:04.866Z,23.60
2017-09-22T08:39:33.985Z,25.43
2017-09-22T08:42:03.112Z,31.80
2017-09-22T08:44:32.257Z,26.03
2017-09-22T08:47:01.373Z,21.23
2017-09-22T08:49:30.505Z,28.80
2017-09-22T08:51:59.628Z,26.53
2017-09-22T08:54:28.757Z,24.00
2017-09-22T08:56:57.882Z,22.30
2017-09-22T08:59:27.066Z,20.27
2017-09-22T09:01:56.192Z,26.33
2017-09-22T09:04:25.312Z,24.77
2017-09-22T09:06:54.435Z,25.33
2017-09-22T09:09:23.555Z,27.80
2017-09-22T09:11:52.708Z,25.53
2017-09-22T09:14:21.817Z,22.40
2017-09-22T09:16:50.977Z,27.93
2017-09-22T09:19:20.113Z,23.90
2017-09-22T09:21:49.236Z,22.00
2017-09-22T09:24:18.400Z,21.73
2017-09-22T09:26:47.532Z,30.23
2017-09-22T09:29:16.718Z,27.40
2017-09-22T09:31:46.604Z,28.47
2017-09-22T09:34:15.811Z,22.93
2017-09-22T09:36:44.945Z,21.80
2017-09-22T09:39:14.085Z,23.93
2017-09-22T09:41:43.196Z,25.20
2017-09-22T09:44:12.330Z,28.80
2017-09-22T09:46:41.466Z,22.90
2017-09-22T09:49:10.581Z,25.63
2017-09-22T09:51:39.703Z,18.67
2017-09-22T09:54:08.827Z,22.17
2017-09-22T09:56:37.961Z,18.00
2017-09-22T09:59:07.077Z,20.43
2017-09-22T10:01:36.198Z,22.60
2017-09-22T10:04:05.312Z,18.33
2017-09-22T10:06:34.446Z,21.40
2017-09-22T10:09:03.574Z,17.57
2017-09-22T10:11:32.739Z,17.90
2017-09-22T10:14:01.840Z,19.00
2017-09-22T10:16:30.955Z,16.97
2017-09-22T10:19:00.096Z,13.60
2017-09-22T10:21:29.321Z,16.73
2017-09-22T10:23:58.464Z,14.53
2017-09-22T10:26:27.661Z,13.80
2017-09-22T10:28:56.780Z,16.00
2017-09-22T10:31:25.912Z,17.73
2017-09-22T10:33:55.253Z,19.20
2017-09-22T10:36:24.374Z,15.50
2017-09-22T10:38:53.529Z,18.47
2017-09-22T10:41:22.660Z,21.80
2017-09-22T10:43:51.800Z,22.97
2017-09-22T10:46:20.932Z,18.30
2017-09-22T10:48:50.049Z,19.47
2017-09-22T10:51:19.193Z,16.60
2017-09-22T10:53:48.326Z,19.03
2017-09-22T10:56:17.497Z,25.33
2017-09-22T10:58:46.593Z,14.73
2017-09-22T11:01:16.009Z,12.77
2017-09-22T11:03:45.125Z,16.67
2017-09-22T11:06:14.308Z,15.10
2017-09-22T11:08:43.428Z,16.17
2017-09-22T11:11:12.555Z,13.40
2017-09-22T11:13:41.785Z,13.97
2017-09-22T11:16:10.906Z,20.40
2017-09-22T11:18:40.045Z,13.20
2017-09-22T11:21:09.160Z,10.87
2017-09-22T11:23:38.297Z,11.60
2017-09-22T11:26:07.413Z,14.53
2017-09-22T11:28:36.550Z,12.67
2017-09-22T11:31:05.449Z,10.07
2017-09-22T11:33:34.751Z,10.73
2017-09-22T11:36:04.053Z,12.10
2017-09-22T11:38:33.160Z,15.07
2017-09-22T11:41:02.288Z,10.87
2017-09-22T11:43:31.406Z,12.80
2017-09-22T11:46:00.523Z,13.80
2017-09-22T11:48:29.694Z,7.10
2017-09-22T11:50:58.802Z,9.87
2017-09-22T11:53:27.923Z,9.90
2017-09-22T11:55:57.040Z,9.10
2017-09-22T11:58:26.171Z,8.37
2017-09-22T12:00:55.347Z,7.77
2017-09-22T12:03:24.541Z,8.40
2017-09-22T12:05:53.768Z,8.80
2017-09-22T12:08:22.926Z,7.73
2017-09-22T12:10:52.064Z,12.10
2017-09-22T12:13:21.173Z,13.77
2017-09-22T12:15:50.284Z,8.10
2017-09-22T12:18:19.421Z,11.43
2017-09-22T12:20:48.563Z,11.37
2017-09-22T12:23:17.678Z,10.77
2017-09-22T12:25:46.815Z,9.83
2017-09-22T12:28:15.925Z,7.17
2017-09-22T12:30:45.056Z,11.27
2017-09-22T12:33:14.180Z,6.10
2017-09-22T12:35:43.292Z,7.47
2017-09-22T12:38:12.425Z,14.53
2017-09-22T12:40:41.533Z,5.83
2017-09-22T12:43:10.652Z,5.90
2017-09-22T12:45:39.792Z,7.37
2017-09-22T12:48:08.957Z,8.70
2017-09-22T12:50:38.088Z,8.03
2017-09-22T12:53:07.202Z,6.53
2017-09-22T12:55:36.728Z,7.80
2017-09-22T12:58:05.877Z,9.23
2017-09-22T13:00:34.994Z,8.53
2017-09-22T13:03:04.433Z,19.83
2017-09-22T13:05:34.179Z,10.77
2017-09-22T13:08:03.724Z,9.03
2017-09-22T13:10:32.855Z,9.10
2017-09-22T13:13:01.981Z,11.67
2017-09-22T13:15:31.226Z,9.10
2017-09-22T13:18:00.336Z,9.97
2017-09-22T13:20:29.644Z,7.33
2017-09-22T13:22:58.828Z,10.13
2017-09-22T13:25:28.036Z,12.00
2017-09-22T13:28:07.649Z,9.13
2017-09-22T13:30:36.752Z,11.47
2017-09-22T13:33:06.128Z,10.73
2017-09-22T13:35:35.298Z,7.83
2017-09-22T13:38:04.501Z,7.70
2017-09-22T13:40:33.631Z,13.00
2017-09-22T13:43:02.870Z,10.33
2017-09-22T13:45:32.008Z,8.30
2017-09-22T13:48:01.149Z,7.40
2017-09-22T13:50:30.538Z,13.20
2017-09-22T13:52:59.673Z,9.10
2017-09-22T13:55:28.786Z,10.10
2017-09-22T13:57:57.927Z,8.63
2017-09-22T14:00:27.035Z,8.90
2017-09-22T14:02:56.179Z,8.40
2017-09-22T14:05:27.098Z,11.83
2017-09-22T14:07:56.416Z,9.40
2017-09-22T14:10:25.545Z,5.93
2017-09-22T14:12:54.667Z,8.70
2017-09-22T14:15:23.807Z,6.43
2017-09-22T14:17:52.930Z,7.53
2017-09-22T14:20:22.114Z,7.37
2017-09-22T14:22:51.226Z,12.30
2017-09-22T14:25:20.370Z,8.27
2017-09-22T14:27:49.490Z,9.83
2017-09-22T14:30:18.622Z,7.63
2017-09-22T14:32:47.771Z,8.17
2017-09-22T14:35:17.067Z,9.73
2017-09-22T14:37:47.272Z,8.30
2017-09-22T14:40:16.373Z,9.23
2017-09-22T14:42:45.502Z,9.57
2017-09-22T14:45:14.704Z,8.90
2017-09-22T14:47:43.819Z,12.20
2017-09-22T14:50:12.961Z,15.13
2017-09-22T14:52:42.102Z,8.47
2017-09-22T14:55:11.217Z,8.97
2017-09-22T14:57:40.345Z,9.50
2017-09-22T15:00:09.466Z,11.30
2017-09-22T15:02:38.575Z,9.67
2017-09-22T15:05:07.700Z,7.40
2017-09-22T15:07:36.828Z,11.27
2017-09-22T15:10:05.963Z,9.17
2017-09-22T15:12:35.077Z,10.13
2017-09-22T15:15:04.215Z,7.77
2017-09-22T15:17:33.324Z,8.50
2017-09-22T15:20:02.464Z,7.70
2017-09-22T15:22:31.598Z,9.63
2017-09-22T15:25:00.705Z,10.70
2017-09-22T15:27:29.843Z,11.47
2017-09-22T15:29:59.094Z,8.30
2017-09-22T15:32:28.222Z,8.60
2017-09-22T15:35:02.184Z,8.07
2017-09-22T15:37:31.309Z,8.20
2017-09-22T15:40:00.600Z,7.17
2017-09-22T15:42:29.749Z,11.43
2017-09-22T15:44:58.916Z,12.20
2017-09-22T15:47:28.092Z,15.10
2017-09-22T15:49:57.248Z,7.43
2017-09-22T15:52:26.470Z,9.97
2017-09-22T15:54:55.592Z,6.90
2017-09-22T15:57:24.745Z,8.37
2017-09-22T15:59:53.900Z,10.90
2017-09-22T16:02:23.020Z,12.93
2017-09-22T16:04:52.133Z,9.33
2017-09-22T16:07:21.272Z,12.83
2017-09-22T16:09:50.389Z,17.87
2017-09-22T16:12:19.529Z,13.63
2017-09-22T16:14:48.668Z,15.17
2017-09-22T16:17:17.870Z,14.50
2017-09-22T16:19:47.081Z,17.63
2017-09-22T16:22:16.214Z,17.50
2017-09-22T16:24:45.347Z,20.53
2017-09-22T16:27:14.480Z,21.93
2017-09-22T16:29:43.616Z,19.53
2017-09-22T16:32:12.746Z,18.93
2017-09-22T16:34:41.884Z,22.47
2017-09-22T16:37:11.051Z,18.67
2017-09-22T16:39:40.198Z,19.50
2017-09-22T16:42:09.497Z,23.73
2017-09-22T16:44:38.621Z,22.97
2017-09-22T16:47:07.751Z,18.40
2017-09-22T16:49:36.881Z,24.27
2017-09-22T16:52:06.013Z,27.47
2017-09-22T16:54:35.610Z,21.90
2017-09-22T16:57:04.761Z,24.70
2017-09-22T16:59:33.892Z,27.10
2017-09-22T17:02:03.031Z,21.10
2017-09-22T17:04:32.144Z,22.00
2017-09-22T17:07:01.282Z,22.00
2017-09-22T17:09:30.406Z,18.27
2017-09-22T17:11:59.557Z,22.57
2017-09-22T17:14:28.664Z,24.23
2017-09-22T17:16:57.802Z,20.73
2017-09-22T17:19:26.933Z,22.83
2017-09-22T17:21:56.061Z,22.87
2017-09-22T17:24:25.216Z,26.50
2017-09-22T17:26:54.356Z,24.53
2017-09-22T17:29:23.483Z,21.97
2017-09-22T17:31:52.664Z,22.23
2017-09-22T17:34:21.756Z,25.23
2017-09-22T17:36:50.878Z,23.87
2017-09-22T17:39:20.001Z,26.40
2017-09-22T17:41:49.155Z,23.10
2017-09-22T17:44:18.294Z,24.10
2017-09-22T17:46:47.442Z,26.40
2017-09-22T17:49:16.557Z,26.90
2017-09-22T17:51:46.741Z,29.87
2017-09-22T17:54:15.862Z,23.87
2017-09-22T17:56:44.984Z,24.10
2017-09-22T17:59:14.120Z,23.90
2017-09-22T18:01:43.235Z,25.87
2017-09-22T18:04:12.372Z,22.07
2017-09-22T18:06:41.510Z,21.87
2017-09-22T18:09:10.628Z,24.80
2017-09-22T18:11:39.737Z,25.87
2017-09-22T18:14:08.890Z,24.60
2017-09-22T18:16:38.024Z,25.90
2017-09-22T18:19:07.169Z,20.13
2017-09-22T18:21:36.277Z,29.10
2017-09-22T18:24:05.408Z,23.17
2017-09-22T18:26:34.592Z,23.77
2017-09-22T18:29:03.744Z,27.17
2017-09-22T18:31:32.869Z,25.87
2017-09-22T18:34:02.026Z,21.17
2017-09-22T18:36:31.153Z,26.53
2017-09-22T18:39:00.261Z,20.90
2017-09-22T18:41:29.401Z,21.50
2017-09-22T18:43:58.541Z,23.93
2017-09-22T18:46:27.682Z,21.97
2017-09-22T18:48:56.821Z,24.63
2017-09-22T18:51:25.947Z,25.30
2017-09-22T18:53:55.089Z,28.60
2017-09-22T18:56:24.209Z,23.43
2017-09-22T18:58:53.373Z,24.80
2017-09-22T19:01:22.657Z,26.87
2017-09-22T19:03:51.789Z,26.73
2017-09-22T19:06:20.912Z,24.33
2017-09-22T19:08:50.044Z,29.80
2017-09-22T19:11:19.174Z,30.80
2017-09-22T19:13:48.301Z,27.90
2017-09-22T19:16:17.457Z,35.13
2017-09-22T19:18:46.659Z,32.40
2017-09-22T19:21:15.894Z,30.20
2017-09-22T19:23:45.020Z,29.50
2017-09-22T19:26:14.160Z,32.20
2017-09-22T19:28:43.273Z,23.90
2017-09-22T19:31:12.434Z,30.10
2017-09-22T19:33:41.622Z,28.40
2017-09-22T19:36:10.753Z,31.53
2017-09-22T19:38:39.921Z,29.73
2017-09-22T19:41:09.044Z,21.40
2017-09-22T19:43:38.164Z,34.37
2017-09-22T19:46:07.298Z,29.80
2017-09-22T19:48:36.472Z,46.17
2017-09-22T19:51:05.626Z,49.43
2017-09-22T19:53:34.734Z,53.20
2017-09-22T19:56:03.869Z,43.00
2017-09-22T19:58:33.029Z,39.00
2017-09-22T20:01:02.161Z,30.63
2017-09-22T20:03:31.485Z,29.30
2017-09-22T20:06:00.626Z,29.57
2017-09-22T20:08:29.779Z,26.57
2017-09-22T20:10:58.922Z,24.60
2017-09-22T20:13:28.080Z,23.47
2017-09-22T20:15:57.249Z,23.67
2017-09-22T20:18:26.665Z,25.87
2017-09-22T20:20:55.822Z,29.40
2017-09-22T20:23:24.954Z,30.33
2017-09-22T20:25:54.125Z,27.10
2017-09-22T20:28:24.006Z,29.20
2017-09-22T20:30:53.520Z,25.17
2017-09-22T20:33:22.764Z,32.20
2017-09-22T20:35:52.050Z,34.13
2017-09-22T20:38:21.187Z,44.97
2017-09-22T20:40:50.349Z,34.63
2017-09-22T20:43:19.485Z,39.40
2017-09-22T20:45:48.653Z,34.73
2017-09-22T20:48:18.019Z,37.80
2017-09-22T20:50:47.135Z,38.23
2017-09-22T20:53:16.440Z,41.80
2017-09-22T20:55:45.594Z,37.40
2017-09-22T20:58:14.724Z,34.67
2017-09-22T21:00:43.870Z,34.87
2017-09-22T21:03:13.022Z,32.87
2017-09-22T21:05:45.339Z,30.00
2017-09-22T21:08:14.465Z,33.13
2017-09-22T21:10:43.597Z,31.67
2017-09-22T21:13:12.928Z,27.93
2017-09-22T21:15:42.075Z,32.00
2017-09-22T21:18:11.236Z,34.63
2017-09-22T21:20:41.313Z,31.27
2017-09-22T21:23:10.442Z,31.30
2017-09-22T21:25:39.573Z,35.17
2017-09-22T21:28:09.110Z,39.23
2017-09-22T21:30:38.233Z,34.53
2017-09-22T21:33:07.494Z,34.47
2017-09-22T21:35:36.636Z,38.60
2017-09-22T21:38:05.753Z,43.90
2017-09-22T21:40:34.956Z,40.23
2017-09-22T21:43:04.104Z,36.90
2017-09-22T21:45:33.247Z,40.20
2017-09-22T21:48:02.501Z,35.80
2017-09-22T21:50:31.624Z,48.20
2017-09-22T21:53:00.740Z,43.40
2017-09-22T21:55:30.038Z,70.30
2017-09-22T21:57:59.344Z,99.30
2017-09-22T22:00:28.448Z,79.17
2017-09-22T22:03:14.485Z,71.63
2017-09-22T22:05:43.595Z,67.80
2017-09-22T22:08:12.739Z,69.57
2017-09-22T22:10:41.852Z,64.70
2017-09-22T22:13:10.985Z,69.13
2017-09-22T22:15:40.318Z,78.27
2017-09-22T22:18:09.517Z,68.43
2017-09-22T22:20:38.654Z,61.30
2017-09-22T22:23:07.788Z,66.60
2017-09-22T22:25:36.913Z,55.43
2017-09-22T22:28:06.039Z,76.70
2017-09-22T22:30:35.151Z,59.27
2017-09-22T22:33:04.289Z,59.23
2017-09-22T22:35:32.575Z,63.10
2017-09-22T22:38:00.825Z,62.70
2017-09-22T22:40:28.288Z,62.87
2017-09-22T22:45:29.656Z,58.50
2017-09-22T22:47:57.118Z,62.80
2017-09-22T22:50:25.358Z,63.23
2017-09-22T22:52:52.821Z,71.43
2017-09-22T22:55:20.309Z,68.67
2017-09-22T22:57:48.569Z,81.57
2017-09-22T23:00:16.533Z,76.43
2017-09-22T23:02:49.677Z,68.00
2017-09-22T23:05:17.142Z,54.77
2017-09-22T23:07:44.614Z,54.63
2017-09-22T23:10:12.074Z,56.43
2017-09-22T23:12:39.559Z,57.10
2017-09-22T23:15:07.041Z,54.97
2017-09-22T23:17:35.302Z,50.47
2017-09-22T23:20:03.559Z,49.43
2017-09-22T23:22:31.042Z,54.37
2017-09-22T23:24:59.730Z,52.50
2017-09-22T23:27:28.184Z,56.27
2017-09-22T23:29:55.653Z,61.77
2017-09-22T23:32:23.926Z,52.40
2017-09-22T23:34:51.410Z,58.73
2017-09-22T23:37:18.891Z,60.07
2017-09-22T23:39:46.373Z,61.80
2017-09-22T23:42:13.857Z,57.17
2017-09-22T23:44:42.106Z,52.07
2017-09-22T23:47:09.577Z,62.20
2017-09-22T23:49:37.047Z,55.83
2017-09-22T23:52:05.338Z,56.27
2017-09-22T23:54:32.818Z,58.23
2017-09-22T23:57:00.301Z,53.70
2017-09-22T23:59:27.761Z,53.17
